sensor_id;sensor_type;location;lat;lon;timestamp;P1;durP1;ratioP1;P2;durP2;ratioP2
2888;SDS011;1453;42.708;23.282;2022-09-09T00:04:42;39.00;;;26.97;;
2888;SDS011;1453;42.708;23.282;2022-09-09T00:07:38;34.93;;;27.83;;
2888;SDS011;1453;42.708;23.282;2022-09-09T00:16:17;15.30;;;13.60;;
2888;SDS011;1453;42.708;23.282;2022-09-09T00:19:00;16.27;;;14.53;;
2888;SDS011;1453;42.708;23.282;2022-09-09T00:21:37;64.03;;;45.10;;
2888;SDS011;1453;42.708;23.282;2022-09-09T00:24:09;83.27;;;60.13;;
2888;SDS011;1453;42.708;23.282;2022-09-09T00:26:52;80.43;;;59.13;;
2888;SDS011;1453;42.708;23.282;2022-09-09T00:32:14;15.73;;;14.23;;
2888;SDS011;1453;42.708;23.282;2022-09-09T00:34:51;18.97;;;17.10;;
2888;SDS011;1453;42.708;23.282;2022-09-09T00:37:24;16.10;;;14.50;;
2888;SDS011;1453;42.708;23.282;2022-09-09T00:39:51;19.23;;;16.60;;
2888;SDS011;1453;42.708;23.282;2022-09-09T00:42:26;18.90;;;15.33;;
2888;SDS011;1453;42.708;23.282;2022-09-09T00:45:19;17.53;;;15.50;;
2888;SDS011;1453;42.708;23.282;2022-09-09T00:48:30;17.17;;;15.43;;
2888;SDS011;1453;42.708;23.282;2022-09-09T00:51:09;18.20;;;16.47;;
2888;SDS011;1453;42.708;23.282;2022-09-09T00:59:52;19.37;;;17.10;;
2888;SDS011;1453;42.708;23.282;2022-09-09T01:08:14;20.33;;;18.17;;
2888;SDS011;1453;42.708;23.282;2022-09-09T01:11:20;21.47;;;17.83;;
2888;SDS011;1453;42.708;23.282;2022-09-09T01:13:53;19.93;;;17.70;;
2888;SDS011;1453;42.708;23.282;2022-09-09T01:16:27;24.80;;;20.53;;
2888;SDS011;1453;42.708;23.282;2022-09-09T01:18:56;23.33;;;18.50;;
2888;SDS011;1453;42.708;23.282;2022-09-09T01:21:35;72.50;;;52.13;;
2888;SDS011;1453;42.708;23.282;2022-09-09T01:24:29;26.23;;;20.97;;
2888;SDS011;1453;42.708;23.282;2022-09-09T01:27:05;25.07;;;21.20;;
2888;SDS011;1453;42.708;23.282;2022-09-09T01:29:32;20.67;;;16.97;;
2888;SDS011;1453;42.708;23.282;2022-09-09T01:32:03;20.07;;;17.30;;
2888;SDS011;1453;42.708;23.282;2022-09-09T01:35:15;19.60;;;17.13;;
2888;SDS011;1453;42.708;23.282;2022-09-09T01:38:07;18.27;;;16.47;;
2888;SDS011;1453;42.708;23.282;2022-09-09T01:40:33;23.87;;;18.30;;
2888;SDS011;1453;42.708;23.282;2022-09-09T01:43:00;19.03;;;16.93;;
2888;SDS011;1453;42.708;23.282;2022-09-09T01:45:26;19.97;;;16.50;;
2888;SDS011;1453;42.708;23.282;2022-09-09T01:47:52;27.20;;;23.00;;
2888;SDS011;1453;42.708;23.282;2022-09-09T01:50:19;41.13;;;31.73;;
2888;SDS011;1453;42.708;23.282;2022-09-09T01:52:46;50.23;;;37.07;;
2888;SDS011;1453;42.708;23.282;2022-09-09T01:55:18;36.87;;;27.80;;
2888;SDS011;1453;42.708;23.282;2022-09-09T01:58:09;19.60;;;17.27;;
2888;SDS011;1453;42.708;23.282;2022-09-09T02:00:44;20.07;;;18.07;;
2888;SDS011;1453;42.708;23.282;2022-09-09T02:03:33;19.90;;;17.90;;
2888;SDS011;1453;42.708;23.282;2022-09-09T02:08:54;20.50;;;17.73;;
2888;SDS011;1453;42.708;23.282;2022-09-09T02:11:23;21.23;;;16.70;;
2888;SDS011;1453;42.708;23.282;2022-09-09T02:13:53;22.97;;;19.50;;
2888;SDS011;1453;42.708;23.282;2022-09-09T02:22:07;31.87;;;24.73;;
2888;SDS011;1453;42.708;23.282;2022-09-09T02:24:35;24.33;;;19.63;;
2888;SDS011;1453;42.708;23.282;2022-09-09T02:27:03;21.47;;;16.00;;
2888;SDS011;1453;42.708;23.282;2022-09-09T02:29:34;19.87;;;16.37;;
2888;SDS011;1453;42.708;23.282;2022-09-09T02:32:07;19.00;;;17.00;;
2888;SDS011;1453;42.708;23.282;2022-09-09T02:34:39;17.43;;;15.70;;
2888;SDS011;1453;42.708;23.282;2022-09-09T02:37:10;19.47;;;17.37;;
2888;SDS011;1453;42.708;23.282;2022-09-09T02:39:37;20.47;;;17.17;;
2888;SDS011;1453;42.708;23.282;2022-09-09T02:42:05;18.50;;;15.97;;
2888;SDS011;1453;42.708;23.282;2022-09-09T02:44:33;19.00;;;17.10;;
2888;SDS011;1453;42.708;23.282;2022-09-09T02:50:03;18.80;;;17.03;;
2888;SDS011;1453;42.708;23.282;2022-09-09T02:58:02;24.43;;;16.90;;
2888;SDS011;1453;42.708;23.282;2022-09-09T03:00:33;19.30;;;17.40;;
2888;SDS011;1453;42.708;23.282;2022-09-09T03:03:01;20.73;;;18.13;;
2888;SDS011;1453;42.708;23.282;2022-09-09T03:05:30;20.90;;;18.10;;
2888;SDS011;1453;42.708;23.282;2022-09-09T03:07:56;26.30;;;17.70;;
2888;SDS011;1453;42.708;23.282;2022-09-09T03:10:23;19.53;;;17.47;;
2888;SDS011;1453;42.708;23.282;2022-09-09T03:12:49;19.30;;;17.20;;
2888;SDS011;1453;42.708;23.282;2022-09-09T03:15:15;18.33;;;16.50;;
2888;SDS011;1453;42.708;23.282;2022-09-09T03:17:41;19.17;;;17.20;;
2888;SDS011;1453;42.708;23.282;2022-09-09T03:20:07;19.67;;;17.67;;
2888;SDS011;1453;42.708;23.282;2022-09-09T03:22:34;20.30;;;18.13;;
2888;SDS011;1453;42.708;23.282;2022-09-09T03:25:00;19.17;;;17.00;;
2888;SDS011;1453;42.708;23.282;2022-09-09T03:27:27;20.30;;;17.33;;
2888;SDS011;1453;42.708;23.282;2022-09-09T03:29:54;19.23;;;17.03;;
2888;SDS011;1453;42.708;23.282;2022-09-09T03:32:21;19.23;;;17.33;;
2888;SDS011;1453;42.708;23.282;2022-09-09T03:34:47;19.87;;;17.73;;
2888;SDS011;1453;42.708;23.282;2022-09-09T03:37:17;18.17;;;16.10;;
2888;SDS011;1453;42.708;23.282;2022-09-09T03:39:44;18.17;;;16.30;;
2888;SDS011;1453;42.708;23.282;2022-09-09T03:42:13;19.73;;;17.60;;
2888;SDS011;1453;42.708;23.282;2022-09-09T03:44:43;17.47;;;15.77;;
2888;SDS011;1453;42.708;23.282;2022-09-09T03:47:15;18.60;;;16.70;;
2888;SDS011;1453;42.708;23.282;2022-09-09T03:49:43;19.83;;;16.73;;
2888;SDS011;1453;42.708;23.282;2022-09-09T03:52:10;20.07;;;17.30;;
2888;SDS011;1453;42.708;23.282;2022-09-09T03:54:36;19.83;;;17.83;;
2888;SDS011;1453;42.708;23.282;2022-09-09T03:57:02;21.00;;;17.50;;
2888;SDS011;1453;42.708;23.282;2022-09-09T03:59:29;21.63;;;19.33;;
2888;SDS011;1453;42.708;23.282;2022-09-09T04:01:55;20.50;;;18.40;;
2888;SDS011;1453;42.708;23.282;2022-09-09T04:04:22;19.00;;;17.10;;
2888;SDS011;1453;42.708;23.282;2022-09-09T04:06:48;20.47;;;18.47;;
2888;SDS011;1453;42.708;23.282;2022-09-09T04:09:14;23.93;;;18.10;;
2888;SDS011;1453;42.708;23.282;2022-09-09T04:11:40;20.03;;;17.63;;
2888;SDS011;1453;42.708;23.282;2022-09-09T04:14:06;22.97;;;19.50;;
2888;SDS011;1453;42.708;23.282;2022-09-09T04:16:32;25.07;;;20.60;;
2888;SDS011;1453;42.708;23.282;2022-09-09T04:19:00;20.27;;;17.20;;
2888;SDS011;1453;42.708;23.282;2022-09-09T04:21:26;18.20;;;16.30;;
2888;SDS011;1453;42.708;23.282;2022-09-09T04:23:52;17.77;;;16.03;;
2888;SDS011;1453;42.708;23.282;2022-09-09T04:26:18;18.17;;;15.77;;
2888;SDS011;1453;42.708;23.282;2022-09-09T04:28:45;19.57;;;16.60;;
2888;SDS011;1453;42.708;23.282;2022-09-09T04:31:14;18.70;;;16.70;;
2888;SDS011;1453;42.708;23.282;2022-09-09T04:33:45;20.93;;;17.10;;
2888;SDS011;1453;42.708;23.282;2022-09-09T04:36:12;21.43;;;16.93;;
2888;SDS011;1453;42.708;23.282;2022-09-09T04:38:38;19.03;;;17.00;;
2888;SDS011;1453;42.708;23.282;2022-09-09T04:41:04;20.50;;;17.00;;
2888;SDS011;1453;42.708;23.282;2022-09-09T04:43:32;20.13;;;17.20;;
2888;SDS011;1453;42.708;23.282;2022-09-09T04:45:59;25.27;;;20.43;;
2888;SDS011;1453;42.708;23.282;2022-09-09T04:48:25;22.87;;;20.57;;
2888;SDS011;1453;42.708;23.282;2022-09-09T04:53:25;19.83;;;17.73;;
2888;SDS011;1453;42.708;23.282;2022-09-09T04:55:52;22.20;;;20.00;;
2888;SDS011;1453;42.708;23.282;2022-09-09T04:58:27;27.23;;;20.10;;
2888;SDS011;1453;42.708;23.282;2022-09-09T05:00:52;29.30;;;19.90;;
2888;SDS011;1453;42.708;23.282;2022-09-09T05:03:18;24.40;;;18.77;;
2888;SDS011;1453;42.708;23.282;2022-09-09T05:05:44;20.53;;;18.17;;
2888;SDS011;1453;42.708;23.282;2022-09-09T05:08:10;25.30;;;20.90;;
2888;SDS011;1453;42.708;23.282;2022-09-09T05:10:36;23.57;;;19.77;;
2888;SDS011;1453;42.708;23.282;2022-09-09T05:13:04;21.70;;;19.40;;
2888;SDS011;1453;42.708;23.282;2022-09-09T05:15:31;23.47;;;20.70;;
2888;SDS011;1453;42.708;23.282;2022-09-09T05:17:58;25.93;;;21.13;;
2888;SDS011;1453;42.708;23.282;2022-09-09T05:20:25;23.10;;;20.63;;
2888;SDS011;1453;42.708;23.282;2022-09-09T05:22:53;22.07;;;18.57;;
2888;SDS011;1453;42.708;23.282;2022-09-09T05:25:20;21.03;;;19.03;;
2888;SDS011;1453;42.708;23.282;2022-09-09T05:27:47;19.63;;;17.40;;
2888;SDS011;1453;42.708;23.282;2022-09-09T05:30:14;20.10;;;17.90;;
2888;SDS011;1453;42.708;23.282;2022-09-09T05:32:40;18.80;;;16.80;;
2888;SDS011;1453;42.708;23.282;2022-09-09T05:35:06;22.67;;;19.30;;
2888;SDS011;1453;42.708;23.282;2022-09-09T05:37:32;19.33;;;17.37;;
2888;SDS011;1453;42.708;23.282;2022-09-09T05:39:58;19.43;;;17.30;;
2888;SDS011;1453;42.708;23.282;2022-09-09T05:42:29;20.87;;;18.77;;
2888;SDS011;1453;42.708;23.282;2022-09-09T05:44:56;24.53;;;17.80;;
2888;SDS011;1453;42.708;23.282;2022-09-09T05:47:23;22.23;;;18.47;;
2888;SDS011;1453;42.708;23.282;2022-09-09T05:49:48;21.23;;;17.77;;
2888;SDS011;1453;42.708;23.282;2022-09-09T05:52:14;20.33;;;18.33;;
2888;SDS011;1453;42.708;23.282;2022-09-09T05:54:40;21.67;;;18.30;;
2888;SDS011;1453;42.708;23.282;2022-09-09T05:57:07;22.33;;;17.87;;
2888;SDS011;1453;42.708;23.282;2022-09-09T05:59:33;20.90;;;18.30;;
2888;SDS011;1453;42.708;23.282;2022-09-09T06:01:59;20.30;;;17.97;;
2888;SDS011;1453;42.708;23.282;2022-09-09T06:04:25;24.03;;;18.17;;
2888;SDS011;1453;42.708;23.282;2022-09-09T06:06:51;30.30;;;19.00;;
2888;SDS011;1453;42.708;23.282;2022-09-09T06:09:17;21.60;;;19.30;;
2888;SDS011;1453;42.708;23.282;2022-09-09T06:11:43;22.63;;;17.90;;
2888;SDS011;1453;42.708;23.282;2022-09-09T06:14:09;18.00;;;16.30;;
2888;SDS011;1453;42.708;23.282;2022-09-09T06:16:35;21.20;;;16.90;;
2888;SDS011;1453;42.708;23.282;2022-09-09T06:19:02;17.37;;;15.67;;
2888;SDS011;1453;42.708;23.282;2022-09-09T06:21:30;18.50;;;15.70;;
2888;SDS011;1453;42.708;23.282;2022-09-09T06:23:59;16.10;;;14.50;;
2888;SDS011;1453;42.708;23.282;2022-09-09T06:26:29;19.47;;;15.20;;
2888;SDS011;1453;42.708;23.282;2022-09-09T06:29:00;19.03;;;15.33;;
2888;SDS011;1453;42.708;23.282;2022-09-09T06:31:29;17.53;;;14.87;;
2888;SDS011;1453;42.708;23.282;2022-09-09T06:33:58;20.40;;;14.97;;
2888;SDS011;1453;42.708;23.282;2022-09-09T06:36:26;17.40;;;15.23;;
2888;SDS011;1453;42.708;23.282;2022-09-09T06:38:57;17.13;;;15.07;;
2888;SDS011;1453;42.708;23.282;2022-09-09T06:41:24;22.57;;;15.03;;
2888;SDS011;1453;42.708;23.282;2022-09-09T06:43:52;17.50;;;15.07;;
2888;SDS011;1453;42.708;23.282;2022-09-09T06:46:21;17.43;;;15.63;;
2888;SDS011;1453;42.708;23.282;2022-09-09T06:48:53;21.80;;;16.50;;
2888;SDS011;1453;42.708;23.282;2022-09-09T06:51:26;16.37;;;14.73;;
2888;SDS011;1453;42.708;23.282;2022-09-09T06:53:57;18.77;;;15.17;;
2888;SDS011;1453;42.708;23.282;2022-09-09T06:56:37;18.53;;;16.03;;
2888;SDS011;1453;42.708;23.282;2022-09-09T06:59:08;16.70;;;15.00;;
2888;SDS011;1453;42.708;23.282;2022-09-09T07:01:36;19.63;;;14.67;;
2888;SDS011;1453;42.708;23.282;2022-09-09T07:04:08;16.50;;;14.70;;
2888;SDS011;1453;42.708;23.282;2022-09-09T07:06:40;18.00;;;14.37;;
2888;SDS011;1453;42.708;23.282;2022-09-09T07:09:12;14.10;;;12.80;;
2888;SDS011;1453;42.708;23.282;2022-09-09T07:11:41;15.47;;;13.77;;
2888;SDS011;1453;42.708;23.282;2022-09-09T07:14:12;19.07;;;14.30;;
2888;SDS011;1453;42.708;23.282;2022-09-09T07:16:42;22.20;;;15.60;;
2888;SDS011;1453;42.708;23.282;2022-09-09T07:19:10;21.60;;;15.37;;
2888;SDS011;1453;42.708;23.282;2022-09-09T07:21:37;15.83;;;14.33;;
2888;SDS011;1453;42.708;23.282;2022-09-09T07:24:05;19.27;;;15.30;;
2888;SDS011;1453;42.708;23.282;2022-09-09T07:26:35;17.57;;;14.90;;
2888;SDS011;1453;42.708;23.282;2022-09-09T07:29:01;17.97;;;16.17;;
2888;SDS011;1453;42.708;23.282;2022-09-09T07:31:29;17.50;;;13.10;;
2888;SDS011;1453;42.708;23.282;2022-09-09T07:33:57;18.07;;;15.63;;
2888;SDS011;1453;42.708;23.282;2022-09-09T07:36:29;14.70;;;12.40;;
2888;SDS011;1453;42.708;23.282;2022-09-09T07:39:01;11.60;;;10.03;;
2888;SDS011;1453;42.708;23.282;2022-09-09T07:41:43;11.33;;;10.23;;
2888;SDS011;1453;42.708;23.282;2022-09-09T07:44:15;11.90;;;10.80;;
2888;SDS011;1453;42.708;23.282;2022-09-09T07:46:46;12.00;;;10.80;;
2888;SDS011;1453;42.708;23.282;2022-09-09T07:49:12;10.90;;;9.80;;
2888;SDS011;1453;42.708;23.282;2022-09-09T07:51:40;12.13;;;10.93;;
2888;SDS011;1453;42.708;23.282;2022-09-09T07:54:09;14.97;;;11.37;;
2888;SDS011;1453;42.708;23.282;2022-09-09T07:56:38;13.27;;;11.97;;
2888;SDS011;1453;42.708;23.282;2022-09-09T07:59:05;13.60;;;11.23;;
2888;SDS011;1453;42.708;23.282;2022-09-09T08:01:32;11.67;;;10.40;;
2888;SDS011;1453;42.708;23.282;2022-09-09T08:04:05;13.53;;;10.50;;
2888;SDS011;1453;42.708;23.282;2022-09-09T08:06:38;12.40;;;11.20;;
2888;SDS011;1453;42.708;23.282;2022-09-09T08:09:05;12.30;;;11.10;;
2888;SDS011;1453;42.708;23.282;2022-09-09T08:11:33;12.40;;;11.20;;
2888;SDS011;1453;42.708;23.282;2022-09-09T08:14:00;13.30;;;10.50;;
2888;SDS011;1453;42.708;23.282;2022-09-09T08:16:29;13.43;;;11.10;;
2888;SDS011;1453;42.708;23.282;2022-09-09T08:18:58;13.00;;;10.93;;
2888;SDS011;1453;42.708;23.282;2022-09-09T08:21:25;11.43;;;10.20;;
2888;SDS011;1453;42.708;23.282;2022-09-09T08:23:54;12.40;;;10.40;;
2888;SDS011;1453;42.708;23.282;2022-09-09T08:26:24;14.03;;;10.50;;
2888;SDS011;1453;42.708;23.282;2022-09-09T08:29:05;18.93;;;11.00;;
2888;SDS011;1453;42.708;23.282;2022-09-09T08:31:33;12.43;;;11.20;;
2888;SDS011;1453;42.708;23.282;2022-09-09T08:34:03;11.73;;;9.70;;
2888;SDS011;1453;42.708;23.282;2022-09-09T08:36:36;11.60;;;10.50;;
2888;SDS011;1453;42.708;23.282;2022-09-09T08:39:05;11.77;;;10.33;;
2888;SDS011;1453;42.708;23.282;2022-09-09T08:58:18;11.43;;;10.07;;
2888;SDS011;1453;42.708;23.282;2022-09-09T09:09:37;11.87;;;10.70;;
2888;SDS011;1453;42.708;23.282;2022-09-09T09:12:42;11.43;;;10.30;;
2888;SDS011;1453;42.708;23.282;2022-09-09T09:15:11;12.87;;;11.57;;
2888;SDS011;1453;42.708;23.282;2022-09-09T09:17:46;12.33;;;11.10;;
2888;SDS011;1453;42.708;23.282;2022-09-09T09:20:14;12.73;;;11.57;;
2888;SDS011;1453;42.708;23.282;2022-09-09T09:22:50;14.13;;;12.77;;
2888;SDS011;1453;42.708;23.282;2022-09-09T09:25:21;13.37;;;12.10;;
2888;SDS011;1453;42.708;23.282;2022-09-09T09:27:59;15.37;;;13.77;;
2888;SDS011;1453;42.708;23.282;2022-09-09T09:30:39;13.67;;;12.43;;
2888;SDS011;1453;42.708;23.282;2022-09-09T09:36:15;13.53;;;12.00;;
2888;SDS011;1453;42.708;23.282;2022-09-09T09:38:58;13.83;;;12.07;;
2888;SDS011;1453;42.708;23.282;2022-09-09T09:44:01;12.70;;;10.87;;
2888;SDS011;1453;42.708;23.282;2022-09-09T09:46:28;19.67;;;11.70;;
2888;SDS011;1453;42.708;23.282;2022-09-09T09:48:57;11.77;;;10.83;;
2888;SDS011;1453;42.708;23.282;2022-09-09T09:51:30;15.30;;;12.40;;
2888;SDS011;1453;42.708;23.282;2022-09-09T09:56:41;18.67;;;12.73;;
2888;SDS011;1453;42.708;23.282;2022-09-09T10:02:37;13.47;;;11.93;;
2888;SDS011;1453;42.708;23.282;2022-09-09T10:05:04;12.80;;;10.40;;
2888;SDS011;1453;42.708;23.282;2022-09-09T10:07:40;12.37;;;11.30;;
2888;SDS011;1453;42.708;23.282;2022-09-09T10:10:10;17.23;;;11.70;;
2888;SDS011;1453;42.708;23.282;2022-09-09T10:21:02;16.43;;;10.87;;
2888;SDS011;1453;42.708;23.282;2022-09-09T10:34:53;17.90;;;12.73;;
2888;SDS011;1453;42.708;23.282;2022-09-09T10:46:21;14.73;;;12.67;;
2888;SDS011;1453;42.708;23.282;2022-09-09T10:57:42;16.40;;;11.97;;
2888;SDS011;1453;42.708;23.282;2022-09-09T11:00:18;17.90;;;16.00;;
2888;SDS011;1453;42.708;23.282;2022-09-09T11:02:56;16.27;;;11.37;;
2888;SDS011;1453;42.708;23.282;2022-09-09T11:05:36;12.83;;;11.60;;
2888;SDS011;1453;42.708;23.282;2022-09-09T11:08:12;13.13;;;11.67;;
2888;SDS011;1453;42.708;23.282;2022-09-09T11:16:20;14.97;;;11.77;;
2888;SDS011;1453;42.708;23.282;2022-09-09T11:19:01;16.17;;;11.50;;
2888;SDS011;1453;42.708;23.282;2022-09-09T11:21:46;12.90;;;10.73;;
2888;SDS011;1453;42.708;23.282;2022-09-09T11:24:21;15.27;;;10.50;;
2888;SDS011;1453;42.708;23.282;2022-09-09T11:30:21;20.63;;;11.00;;
2888;SDS011;1453;42.708;23.282;2022-09-09T11:44:39;17.50;;;14.90;;
2888;SDS011;1453;42.708;23.282;2022-09-09T11:52:44;15.90;;;12.50;;
2888;SDS011;1453;42.708;23.282;2022-09-09T11:55:32;14.63;;;12.23;;
2888;SDS011;1453;42.708;23.282;2022-09-09T11:58:02;13.37;;;12.17;;
2888;SDS011;1453;42.708;23.282;2022-09-09T12:00:41;13.27;;;11.73;;
2888;SDS011;1453;42.708;23.282;2022-09-09T12:09:25;14.23;;;12.77;;
2888;SDS011;1453;42.708;23.282;2022-09-09T12:11:53;14.90;;;13.50;;
2888;SDS011;1453;42.708;23.282;2022-09-09T12:17:36;16.77;;;14.70;;
2888;SDS011;1453;42.708;23.282;2022-09-09T12:20:22;18.80;;;17.10;;
2888;SDS011;1453;42.708;23.282;2022-09-09T12:29:16;16.70;;;14.60;;
2888;SDS011;1453;42.708;23.282;2022-09-09T12:42:48;10.90;;;9.80;;
2888;SDS011;1453;42.708;23.282;2022-09-09T12:45:25;10.43;;;9.33;;
2888;SDS011;1453;42.708;23.282;2022-09-09T12:50:49;14.87;;;8.40;;
2888;SDS011;1453;42.708;23.282;2022-09-09T12:55:59;11.93;;;9.10;;
2888;SDS011;1453;42.708;23.282;2022-09-09T12:58:33;8.80;;;7.90;;
2888;SDS011;1453;42.708;23.282;2022-09-09T13:01:02;12.43;;;8.20;;
2888;SDS011;1453;42.708;23.282;2022-09-09T13:03:30;12.67;;;8.77;;
2888;SDS011;1453;42.708;23.282;2022-09-09T13:05:58;19.03;;;9.90;;
2888;SDS011;1453;42.708;23.282;2022-09-09T13:08:39;18.60;;;8.90;;
2888;SDS011;1453;42.708;23.282;2022-09-09T13:11:16;10.90;;;7.80;;
2888;SDS011;1453;42.708;23.282;2022-09-09T13:13:56;12.53;;;8.57;;
2888;SDS011;1453;42.708;23.282;2022-09-09T13:16:30;9.70;;;7.83;;
2888;SDS011;1453;42.708;23.282;2022-09-09T13:19:07;10.40;;;8.70;;
2888;SDS011;1453;42.708;23.282;2022-09-09T13:21:38;9.57;;;7.53;;
2888;SDS011;1453;42.708;23.282;2022-09-09T13:24:06;12.50;;;9.20;;
2888;SDS011;1453;42.708;23.282;2022-09-09T13:27:01;14.00;;;9.53;;
2888;SDS011;1453;42.708;23.282;2022-09-09T13:29:53;9.63;;;7.93;;
2888;SDS011;1453;42.708;23.282;2022-09-09T13:32:20;15.80;;;9.77;;
2888;SDS011;1453;42.708;23.282;2022-09-09T13:34:51;11.80;;;8.13;;
2888;SDS011;1453;42.708;23.282;2022-09-09T13:39:55;10.03;;;9.00;;
2888;SDS011;1453;42.708;23.282;2022-09-09T13:42:30;16.70;;;9.20;;
2888;SDS011;1453;42.708;23.282;2022-09-09T13:45:00;14.57;;;7.87;;
2888;SDS011;1453;42.708;23.282;2022-09-09T13:52:44;15.90;;;8.97;;
2888;SDS011;1453;42.708;23.282;2022-09-09T13:55:10;14.10;;;11.43;;
2888;SDS011;1453;42.708;23.282;2022-09-09T13:57:36;13.37;;;9.17;;
2888;SDS011;1453;42.708;23.282;2022-09-09T14:00:02;11.07;;;7.97;;
2888;SDS011;1453;42.708;23.282;2022-09-09T14:02:28;12.20;;;8.23;;
2888;SDS011;1453;42.708;23.282;2022-09-09T14:04:56;12.23;;;8.93;;
2888;SDS011;1453;42.708;23.282;2022-09-09T14:07:21;14.20;;;9.40;;
2888;SDS011;1453;42.708;23.282;2022-09-09T14:09:47;14.53;;;10.23;;
2888;SDS011;1453;42.708;23.282;2022-09-09T14:12:15;11.93;;;8.43;;
2888;SDS011;1453;42.708;23.282;2022-09-09T14:14:41;14.93;;;8.30;;
2888;SDS011;1453;42.708;23.282;2022-09-09T14:17:08;15.53;;;8.83;;
2888;SDS011;1453;42.708;23.282;2022-09-09T14:19:34;9.80;;;7.87;;
2888;SDS011;1453;42.708;23.282;2022-09-09T14:22:02;12.10;;;8.33;;
2888;SDS011;1453;42.708;23.282;2022-09-09T14:24:28;12.93;;;8.23;;
2888;SDS011;1453;42.708;23.282;2022-09-09T14:26:54;17.47;;;8.93;;
2888;SDS011;1453;42.708;23.282;2022-09-09T14:29:20;17.93;;;8.90;;
2888;SDS011;1453;42.708;23.282;2022-09-09T14:31:46;13.30;;;9.03;;
2888;SDS011;1453;42.708;23.282;2022-09-09T14:34:12;13.20;;;9.40;;
2888;SDS011;1453;42.708;23.282;2022-09-09T14:36:39;14.47;;;9.70;;
2888;SDS011;1453;42.708;23.282;2022-09-09T14:39:06;11.63;;;9.27;;
2888;SDS011;1453;42.708;23.282;2022-09-09T14:41:32;17.73;;;9.30;;
2888;SDS011;1453;42.708;23.282;2022-09-09T14:43:58;11.23;;;9.27;;
2888;SDS011;1453;42.708;23.282;2022-09-09T14:46:25;16.20;;;13.53;;
2888;SDS011;1453;42.708;23.282;2022-09-09T14:48:51;14.90;;;12.97;;
2888;SDS011;1453;42.708;23.282;2022-09-09T14:51:19;18.53;;;13.63;;
2888;SDS011;1453;42.708;23.282;2022-09-09T14:53:50;17.07;;;12.37;;
2888;SDS011;1453;42.708;23.282;2022-09-09T14:56:21;13.90;;;11.40;;
2888;SDS011;1453;42.708;23.282;2022-09-09T14:58:49;16.13;;;12.90;;
2888;SDS011;1453;42.708;23.282;2022-09-09T15:01:18;17.80;;;12.50;;
2888;SDS011;1453;42.708;23.282;2022-09-09T15:03:49;13.90;;;12.63;;
2888;SDS011;1453;42.708;23.282;2022-09-09T15:06:24;14.97;;;12.27;;
2888;SDS011;1453;42.708;23.282;2022-09-09T15:08:54;12.37;;;10.60;;
2888;SDS011;1453;42.708;23.282;2022-09-09T15:11:22;17.80;;;12.67;;
2888;SDS011;1453;42.708;23.282;2022-09-09T15:13:50;16.30;;;12.07;;
2888;SDS011;1453;42.708;23.282;2022-09-09T15:16:18;16.67;;;11.07;;
2888;SDS011;1453;42.708;23.282;2022-09-09T15:18:45;11.80;;;10.53;;
2888;SDS011;1453;42.708;23.282;2022-09-09T15:21:15;16.13;;;11.20;;
2888;SDS011;1453;42.708;23.282;2022-09-09T15:23:44;17.67;;;13.03;;
2888;SDS011;1453;42.708;23.282;2022-09-09T15:26:12;12.53;;;11.20;;
2888;SDS011;1453;42.708;23.282;2022-09-09T15:28:42;11.63;;;10.53;;
2888;SDS011;1453;42.708;23.282;2022-09-09T15:31:11;16.50;;;12.40;;
2888;SDS011;1453;42.708;23.282;2022-09-09T15:34:00;17.73;;;13.07;;
2888;SDS011;1453;42.708;23.282;2022-09-09T15:39:04;12.77;;;11.17;;
2888;SDS011;1453;42.708;23.282;2022-09-09T15:41:33;13.30;;;11.57;;
2888;SDS011;1453;42.708;23.282;2022-09-09T15:43:59;16.77;;;11.80;;
2888;SDS011;1453;42.708;23.282;2022-09-09T15:46:39;14.10;;;12.20;;
2888;SDS011;1453;42.708;23.282;2022-09-09T15:49:11;16.33;;;11.10;;
2888;SDS011;1453;42.708;23.282;2022-09-09T15:51:44;20.10;;;11.80;;
2888;SDS011;1453;42.708;23.282;2022-09-09T15:54:19;12.93;;;11.57;;
2888;SDS011;1453;42.708;23.282;2022-09-09T15:56:55;17.37;;;13.47;;
2888;SDS011;1453;42.708;23.282;2022-09-09T15:59:24;15.50;;;11.60;;
2888;SDS011;1453;42.708;23.282;2022-09-09T16:01:55;17.43;;;13.20;;
2888;SDS011;1453;42.708;23.282;2022-09-09T16:04:22;13.60;;;10.30;;
2888;SDS011;1453;42.708;23.282;2022-09-09T16:06:56;10.37;;;8.93;;
2888;SDS011;1453;42.708;23.282;2022-09-09T16:09:28;11.17;;;9.80;;
2888;SDS011;1453;42.708;23.282;2022-09-09T16:11:56;10.87;;;9.70;;
2888;SDS011;1453;42.708;23.282;2022-09-09T16:14:23;15.47;;;10.10;;
2888;SDS011;1453;42.708;23.282;2022-09-09T16:16:52;13.93;;;9.63;;
2888;SDS011;1453;42.708;23.282;2022-09-09T16:19:18;14.63;;;10.40;;
2888;SDS011;1453;42.708;23.282;2022-09-09T16:21:45;16.13;;;9.03;;
2888;SDS011;1453;42.708;23.282;2022-09-09T16:24:14;11.33;;;10.10;;
2888;SDS011;1453;42.708;23.282;2022-09-09T16:26:43;10.37;;;9.03;;
2888;SDS011;1453;42.708;23.282;2022-09-09T16:29:12;14.00;;;10.10;;
2888;SDS011;1453;42.708;23.282;2022-09-09T16:31:40;13.10;;;9.70;;
2888;SDS011;1453;42.708;23.282;2022-09-09T16:34:07;13.50;;;9.93;;
2888;SDS011;1453;42.708;23.282;2022-09-09T16:36:34;17.37;;;10.43;;
2888;SDS011;1453;42.708;23.282;2022-09-09T16:39:03;36.23;;;27.43;;
2888;SDS011;1453;42.708;23.282;2022-09-09T16:41:32;13.00;;;9.70;;
2888;SDS011;1453;42.708;23.282;2022-09-09T16:43:59;11.57;;;10.33;;
2888;SDS011;1453;42.708;23.282;2022-09-09T16:46:31;14.30;;;12.60;;
2888;SDS011;1453;42.708;23.282;2022-09-09T16:49:02;22.10;;;13.07;;
2888;SDS011;1453;42.708;23.282;2022-09-09T16:51:32;18.53;;;12.00;;
2888;SDS011;1453;42.708;23.282;2022-09-09T16:54:05;39.63;;;34.60;;
2888;SDS011;1453;42.708;23.282;2022-09-09T16:56:33;30.90;;;21.97;;
2888;SDS011;1453;42.708;23.282;2022-09-09T16:59:05;29.43;;;26.00;;
2888;SDS011;1453;42.708;23.282;2022-09-09T17:01:46;43.13;;;38.37;;
2888;SDS011;1453;42.708;23.282;2022-09-09T17:04:16;34.87;;;30.40;;
2888;SDS011;1453;42.708;23.282;2022-09-09T17:06:49;45.53;;;37.47;;
2888;SDS011;1453;42.708;23.282;2022-09-09T17:09:18;28.63;;;24.80;;
2888;SDS011;1453;42.708;23.282;2022-09-09T17:11:45;23.07;;;19.03;;
2888;SDS011;1453;42.708;23.282;2022-09-09T17:14:13;26.10;;;23.43;;
2888;SDS011;1453;42.708;23.282;2022-09-09T17:16:42;32.43;;;20.90;;
2888;SDS011;1453;42.708;23.282;2022-09-09T17:19:09;62.63;;;43.60;;
2888;SDS011;1453;42.708;23.282;2022-09-09T17:21:35;43.17;;;36.00;;
2888;SDS011;1453;42.708;23.282;2022-09-09T17:24:02;55.13;;;43.13;;
2888;SDS011;1453;42.708;23.282;2022-09-09T17:26:29;54.20;;;43.77;;
2888;SDS011;1453;42.708;23.282;2022-09-09T17:28:58;56.60;;;50.40;;
2888;SDS011;1453;42.708;23.282;2022-09-09T17:31:26;66.43;;;51.40;;
2888;SDS011;1453;42.708;23.282;2022-09-09T17:33:53;48.20;;;39.83;;
2888;SDS011;1453;42.708;23.282;2022-09-09T17:36:24;29.90;;;24.87;;
2888;SDS011;1453;42.708;23.282;2022-09-09T17:38:56;47.50;;;37.60;;
2888;SDS011;1453;42.708;23.282;2022-09-09T17:41:26;38.30;;;31.03;;
2888;SDS011;1453;42.708;23.282;2022-09-09T17:43:55;21.70;;;16.90;;
2888;SDS011;1453;42.708;23.282;2022-09-09T17:48:57;27.83;;;19.70;;
2888;SDS011;1453;42.708;23.282;2022-09-09T17:51:26;18.67;;;16.37;;
2888;SDS011;1453;42.708;23.282;2022-09-09T17:53:55;22.73;;;15.50;;
2888;SDS011;1453;42.708;23.282;2022-09-09T17:56:25;27.30;;;12.40;;
2888;SDS011;1453;42.708;23.282;2022-09-09T17:58:55;20.20;;;13.77;;
2888;SDS011;1453;42.708;23.282;2022-09-09T18:01:23;15.00;;;13.07;;
2888;SDS011;1453;42.708;23.282;2022-09-09T18:03:53;16.47;;;12.53;;
2888;SDS011;1453;42.708;23.282;2022-09-09T18:06:24;21.30;;;13.90;;